createdAt,value
2018-01-26T00:00:01.528Z,58.60
2018-01-26T00:02:29.058Z,58.40
2018-01-26T00:04:56.613Z,58.50
2018-01-26T00:07:24.185Z,58.30
2018-01-26T00:09:52.494Z,58.40
2018-01-26T00:12:20.019Z,58.40
2018-01-26T00:14:47.545Z,58.40
2018-01-26T00:17:15.841Z,58.40
2018-01-26T00:19:43.473Z,58.30
2018-01-26T00:22:10.993Z,58.60
2018-01-26T00:24:39.284Z,58.40
2018-01-26T00:27:06.814Z,58.40
2018-01-26T00:29:34.336Z,58.40
2018-01-26T00:32:01.921Z,57.90
2018-01-26T00:34:29.426Z,57.90
2018-01-26T00:36:57.716Z,58.00
2018-01-26T00:39:25.294Z,57.90
2018-01-26T00:41:52.812Z,57.90
2018-01-26T00:44:20.340Z,57.90
2018-01-26T00:46:47.882Z,58.00
2018-01-26T00:49:16.221Z,57.70
2018-01-26T00:51:43.867Z,57.70
2018-01-26T00:54:13.282Z,57.30
2018-01-26T00:56:41.604Z,56.80
2018-01-26T00:59:09.281Z,56.90
2018-01-26T01:01:37.571Z,57.20
2018-01-26T01:04:05.089Z,57.20
2018-01-26T01:06:33.545Z,57.60
2018-01-26T01:09:01.073Z,57.70
2018-01-26T01:11:28.612Z,57.60
2018-01-26T01:13:56.266Z,57.40
2018-01-26T01:16:23.794Z,57.40
2018-01-26T01:18:51.348Z,57.40
2018-01-26T01:21:18.911Z,58.00
2018-01-26T01:23:47.221Z,57.50
2018-01-26T01:26:14.781Z,57.50
2018-01-26T01:28:42.317Z,57.30
2018-01-26T01:31:09.833Z,57.60
2018-01-26T01:33:38.150Z,56.80
2018-01-26T01:36:06.462Z,57.00
2018-01-26T01:38:33.981Z,57.10
2018-01-26T01:41:01.492Z,56.90
2018-01-26T01:43:29.789Z,56.30
2018-01-26T01:45:57.311Z,56.30
2018-01-26T01:48:24.814Z,56.20
2018-01-26T01:50:52.667Z,56.10
2018-01-26T01:53:21.365Z,56.10
2018-01-26T01:55:48.892Z,56.50
2018-01-26T01:58:16.540Z,56.40
2018-01-26T02:00:44.073Z,56.60
2018-01-26T02:03:11.610Z,57.10
2018-01-26T02:05:39.144Z,57.10
2018-01-26T02:08:06.661Z,57.20
2018-01-26T02:10:34.195Z,57.10
2018-01-26T02:13:01.949Z,56.90
2018-01-26T02:15:29.497Z,57.00
2018-01-26T02:17:57.794Z,56.50
2018-01-26T02:20:25.372Z,56.50
2018-01-26T02:22:53.673Z,56.50
2018-01-26T02:25:21.320Z,56.60
2018-01-26T02:27:48.825Z,56.60
2018-01-26T02:30:16.506Z,56.90
2018-01-26T02:32:44.857Z,56.90
2018-01-26T02:35:12.399Z,56.90
2018-01-26T02:37:39.950Z,56.80
2018-01-26T02:40:08.249Z,57.10
2018-01-26T02:42:35.816Z,57.20
2018-01-26T02:45:04.120Z,57.10
2018-01-26T02:47:31.663Z,57.20
2018-01-26T02:50:00.754Z,57.50
2018-01-26T02:52:28.270Z,57.50
2018-01-26T02:54:55.783Z,57.50
2018-01-26T02:57:23.321Z,57.40
2018-01-26T02:59:51.621Z,57.60
2018-01-26T03:02:19.130Z,57.70
2018-01-26T03:04:47.545Z,57.40
2018-01-26T03:07:15.062Z,57.40
2018-01-26T03:09:42.593Z,57.30
2018-01-26T03:12:10.125Z,57.40
2018-01-26T03:14:37.676Z,57.60
2018-01-26T03:17:05.286Z,57.30
2018-01-26T03:19:33.574Z,57.00
2018-01-26T03:22:01.096Z,57.40
2018-01-26T03:24:28.738Z,56.60
2018-01-26T03:26:56.246Z,56.70
2018-01-26T03:29:24.556Z,57.00
2018-01-26T03:31:52.099Z,57.00
2018-01-26T03:34:19.625Z,57.00
2018-01-26T03:36:47.173Z,56.90
2018-01-26T03:39:14.723Z,57.00
2018-01-26T03:41:43.009Z,57.00
2018-01-26T03:44:10.531Z,57.00
2018-01-26T03:46:38.083Z,57.00
2018-01-26T03:49:05.678Z,57.00
2018-01-26T03:51:33.337Z,57.10
2018-01-26T03:54:00.917Z,57.20
2018-01-26T03:56:29.227Z,56.90
2018-01-26T03:58:57.527Z,57.30
2018-01-26T04:01:25.165Z,56.80
2018-01-26T04:03:53.467Z,56.40
2018-01-26T04:06:21.058Z,56.40
2018-01-26T04:08:48.603Z,56.50
2018-01-26T04:11:16.152Z,56.50
2018-01-26T04:13:44.453Z,56.30
2018-01-26T04:16:11.971Z,56.40
2018-01-26T04:18:39.525Z,56.00
2018-01-26T04:21:07.055Z,56.20
2018-01-26T04:23:34.584Z,56.30
2018-01-26T04:26:03.794Z,56.50
2018-01-26T04:28:32.462Z,56.50
2018-01-26T04:31:00.033Z,57.00
2018-01-26T04:33:27.546Z,57.10
2018-01-26T04:35:55.850Z,57.00
2018-01-26T04:38:23.376Z,57.00
2018-01-26T04:40:50.895Z,56.90
2018-01-26T04:43:18.454Z,56.50
2018-01-26T04:45:46.782Z,56.80
2018-01-26T04:48:15.071Z,56.80
2018-01-26T04:50:43.373Z,57.00
2018-01-26T04:53:11.688Z,57.40
2018-01-26T04:55:39.203Z,57.50
2018-01-26T04:58:06.726Z,57.40
2018-01-26T05:00:34.381Z,56.90
2018-01-26T05:03:02.700Z,57.50
2018-01-26T05:05:30.979Z,57.60
2018-01-26T05:07:58.554Z,57.20
2018-01-26T05:10:26.090Z,57.00
2018-01-26T05:12:54.375Z,57.30
2018-01-26T05:15:21.927Z,57.30
2018-01-26T05:17:49.461Z,57.60
2018-01-26T05:20:17.042Z,57.90
2018-01-26T05:22:44.589Z,57.60
2018-01-26T05:25:13.000Z,57.50
2018-01-26T05:27:40.573Z,57.60
2018-01-26T05:30:08.869Z,58.30
2018-01-26T05:32:37.187Z,58.80
2018-01-26T05:35:04.710Z,58.80
2018-01-26T05:37:32.439Z,59.00
2018-01-26T05:39:59.965Z,59.30
2018-01-26T05:42:27.491Z,59.50
2018-01-26T05:44:55.629Z,59.40
2018-01-26T05:47:23.160Z,59.70
2018-01-26T05:49:52.242Z,60.30
2018-01-26T05:52:19.788Z,60.20
2018-01-26T05:54:47.297Z,60.50
2018-01-26T05:57:14.913Z,60.70
2018-01-26T05:59:43.230Z,61.20
2018-01-26T06:02:10.767Z,61.30
2018-01-26T06:04:38.335Z,61.20
2018-01-26T06:07:05.886Z,61.10
2018-01-26T06:09:33.655Z,62.00
2018-01-26T06:12:01.200Z,61.00
2018-01-26T06:14:29.516Z,61.40
2018-01-26T06:16:57.129Z,61.50
2018-01-26T06:19:24.665Z,61.60
2018-01-26T06:21:52.201Z,61.90
2018-01-26T06:24:19.745Z,62.50
2018-01-26T06:26:48.042Z,61.70
2018-01-26T06:29:15.702Z,61.70
2018-01-26T06:31:43.246Z,61.90
2018-01-26T06:34:10.791Z,61.80
2018-01-26T06:36:39.100Z,61.20
2018-01-26T06:39:06.673Z,61.20
2018-01-26T06:41:35.077Z,60.80
2018-01-26T06:44:02.716Z,60.80
2018-01-26T06:46:30.233Z,60.50
2018-01-26T06:48:57.765Z,60.60
2018-01-26T06:51:25.493Z,60.80
2018-01-26T06:53:53.051Z,60.40
2018-01-26T06:56:20.637Z,60.20
2018-01-26T06:58:48.152Z,60.60
2018-01-26T07:01:16.636Z,61.00
2018-01-26T07:03:44.187Z,60.90
2018-01-26T07:06:12.501Z,61.10
2018-01-26T07:08:40.025Z,61.10
2018-01-26T07:11:07.542Z,60.60
2018-01-26T07:13:35.127Z,61.30
2018-01-26T07:16:03.664Z,60.40
2018-01-26T07:18:31.235Z,60.40
2018-01-26T07:20:58.837Z,60.30
2018-01-26T07:23:27.149Z,60.00
2018-01-26T07:25:54.753Z,60.00
2018-01-26T07:28:22.312Z,60.00
2018-01-26T07:30:49.830Z,60.10
2018-01-26T07:33:17.659Z,59.80
2018-01-26T07:35:45.252Z,59.80
2018-01-26T07:38:12.795Z,59.40
2018-01-26T07:40:40.309Z,59.00
2018-01-26T07:43:07.944Z,58.90
2018-01-26T07:45:35.470Z,59.40
2018-01-26T07:48:03.189Z,59.40
2018-01-26T07:50:30.784Z,59.10
2018-01-26T07:52:58.321Z,59.00
2018-01-26T07:55:26.861Z,58.50
2018-01-26T07:57:55.503Z,58.50
2018-01-26T08:00:23.036Z,58.50
2018-01-26T08:02:51.379Z,58.80
2018-01-26T08:05:18.905Z,58.70
2018-01-26T08:07:46.444Z,58.90
2018-01-26T08:10:14.013Z,58.70
2018-01-26T08:12:41.540Z,58.70
2018-01-26T08:15:09.809Z,58.70
2018-01-26T08:17:37.377Z,58.80
2018-01-26T08:20:05.690Z,58.50
2018-01-26T08:22:34.277Z,58.50
2018-01-26T08:25:01.811Z,58.10
2018-01-26T08:27:29.393Z,58.50
2018-01-26T08:29:57.716Z,58.10
2018-01-26T08:32:25.482Z,58.10
2018-01-26T08:34:53.125Z,58.40
2018-01-26T08:37:20.686Z,58.40
2018-01-26T08:39:48.288Z,57.40
2018-01-26T08:42:15.920Z,57.40
2018-01-26T08:44:43.447Z,56.90
2018-01-26T08:47:10.990Z,57.40
2018-01-26T08:49:38.513Z,56.70
2018-01-26T08:52:06.080Z,56.50
2018-01-26T08:54:33.977Z,55.80
2018-01-26T08:57:01.516Z,55.50
2018-01-26T08:59:29.070Z,54.90
2018-01-26T09:01:56.616Z,54.70
2018-01-26T09:04:24.920Z,52.70
2018-01-26T09:06:52.550Z,52.70
2018-01-26T09:09:20.072Z,52.60
2018-01-26T09:11:47.623Z,52.50
2018-01-26T09:14:16.309Z,52.20
2018-01-26T09:16:44.113Z,52.20
2018-01-26T09:19:11.646Z,52.10
2018-01-26T09:21:39.209Z,51.90
2018-01-26T09:24:07.513Z,51.80
2018-01-26T09:26:35.047Z,51.80
2018-01-26T09:29:03.596Z,51.50
2018-01-26T09:31:31.181Z,51.40
2018-01-26T09:33:58.693Z,51.30
2018-01-26T09:36:26.261Z,49.50
2018-01-26T09:38:53.993Z,49.70
2018-01-26T09:41:21.540Z,50.30
2018-01-26T09:43:49.839Z,50.60
2018-01-26T09:46:17.465Z,50.60
2018-01-26T09:48:45.791Z,50.80
2018-01-26T09:51:14.313Z,50.80
2018-01-26T09:53:41.869Z,50.30
2018-01-26T09:56:10.611Z,50.30
2018-01-26T09:58:38.332Z,50.30
2018-01-26T10:01:05.969Z,50.80
2018-01-26T10:03:33.757Z,51.60
2018-01-26T10:06:02.206Z,52.10
2018-01-26T10:08:29.755Z,52.00
2018-01-26T10:10:57.498Z,52.00
2018-01-26T10:13:25.027Z,52.20
2018-01-26T10:15:52.557Z,52.10
2018-01-26T10:18:21.911Z,49.70
2018-01-26T10:20:49.456Z,49.70
2018-01-26T10:23:17.020Z,51.40
2018-01-26T10:25:44.557Z,51.40
2018-01-26T10:28:12.241Z,51.90
2018-01-26T10:30:40.058Z,51.60
2018-01-26T10:33:08.518Z,50.10
2018-01-26T10:35:36.080Z,50.60
2018-01-26T10:38:03.900Z,49.80
2018-01-26T10:40:31.436Z,48.80
2018-01-26T10:43:00.469Z,46.90
2018-01-26T10:45:28.062Z,46.90
2018-01-26T10:47:55.629Z,46.10
2018-01-26T10:50:23.942Z,45.80
2018-01-26T10:52:51.535Z,45.80
2018-01-26T10:55:19.894Z,45.00
2018-01-26T10:57:47.402Z,45.00
2018-01-26T11:00:14.980Z,44.90
2018-01-26T11:02:42.561Z,44.70
2018-01-26T11:05:10.101Z,44.80
2018-01-26T11:07:37.686Z,45.00
2018-01-26T11:10:05.250Z,45.30
2018-01-26T11:12:33.044Z,45.70
2018-01-26T11:15:00.654Z,46.10
2018-01-26T11:17:28.181Z,46.50
2018-01-26T11:19:56.550Z,46.40
2018-01-26T11:22:24.870Z,46.90
2018-01-26T11:24:52.433Z,46.90
2018-01-26T11:27:19.969Z,47.60
2018-01-26T11:29:47.527Z,47.20
2018-01-26T11:32:15.185Z,46.80
2018-01-26T11:34:42.765Z,47.30
2018-01-26T11:37:10.513Z,47.30
2018-01-26T11:39:38.153Z,47.40
2018-01-26T11:42:05.769Z,48.50
2018-01-26T11:44:33.308Z,49.10
2018-01-26T11:47:00.858Z,49.90
2018-01-26T11:49:28.552Z,51.30
2018-01-26T11:51:56.350Z,51.60
2018-01-26T11:54:23.909Z,52.10
2018-01-26T11:56:52.249Z,52.70
2018-01-26T11:59:19.815Z,52.70
2018-01-26T12:01:47.455Z,53.10
2018-01-26T12:04:15.183Z,54.40
2018-01-26T12:06:42.785Z,54.30
2018-01-26T12:09:10.583Z,54.60
2018-01-26T12:11:38.234Z,54.90
2018-01-26T12:14:06.122Z,55.10
2018-01-26T12:16:34.411Z,55.70
2018-01-26T12:19:02.236Z,55.70
2018-01-26T12:21:29.802Z,55.80
2018-01-26T12:23:58.204Z,56.40
2018-01-26T12:26:25.756Z,56.30
2018-01-26T12:28:54.048Z,56.90
2018-01-26T12:31:21.681Z,56.90
2018-01-26T12:33:50.104Z,57.20
2018-01-26T12:36:17.776Z,57.20
2018-01-26T12:38:45.347Z,57.10
2018-01-26T12:41:13.014Z,56.50
2018-01-26T12:43:40.721Z,56.40
2018-01-26T12:46:08.274Z,56.20
2018-01-26T12:48:35.833Z,56.20
2018-01-26T12:51:03.364Z,56.30
2018-01-26T12:53:30.928Z,56.20
2018-01-26T12:55:59.360Z,56.80
2018-01-26T12:58:26.873Z,56.80
2018-01-26T13:00:54.566Z,57.00
2018-01-26T13:03:22.303Z,57.20
2018-01-26T13:05:49.990Z,57.20
2018-01-26T13:08:17.636Z,56.90
2018-01-26T13:10:45.232Z,57.30
2018-01-26T13:13:13.076Z,57.20
2018-01-26T13:15:41.469Z,56.60
2018-01-26T13:18:09.069Z,56.60
2018-01-26T13:20:37.438Z,57.60
2018-01-26T13:23:05.766Z,57.60
2018-01-26T13:25:33.355Z,57.60
2018-01-26T13:28:00.881Z,57.70
2018-01-26T13:30:28.409Z,57.10
2018-01-26T13:32:57.830Z,56.90
2018-01-26T13:35:25.386Z,56.90
2018-01-26T13:37:53.104Z,56.70
2018-01-26T13:40:20.836Z,56.80
2018-01-26T13:42:48.387Z,56.70
2018-01-26T13:45:16.120Z,56.50
2018-01-26T13:47:44.551Z,56.90
2018-01-26T13:50:13.174Z,57.00
2018-01-26T13:52:41.538Z,57.30
2018-01-26T13:55:09.937Z,57.30
2018-01-26T13:57:38.363Z,57.30
2018-01-26T14:00:06.985Z,57.20
2018-01-26T14:02:35.462Z,57.40
2018-01-26T14:05:03.160Z,57.40
2018-01-26T14:07:30.679Z,57.70
2018-01-26T14:09:59.047Z,57.60
2018-01-26T14:12:26.618Z,57.60
2018-01-26T14:14:54.920Z,56.70
2018-01-26T14:17:22.460Z,57.20
2018-01-26T14:19:50.820Z,56.20
2018-01-26T14:22:18.390Z,56.20
2018-01-26T14:24:46.695Z,55.70
2018-01-26T14:27:14.330Z,55.70
2018-01-26T14:29:42.670Z,54.40
2018-01-26T14:32:10.325Z,54.40
2018-01-26T14:34:37.911Z,54.10
2018-01-26T14:37:05.484Z,53.80
2018-01-26T14:39:33.081Z,54.00
2018-01-26T14:42:00.623Z,53.40
2018-01-26T14:44:28.150Z,52.50
2018-01-26T14:46:56.506Z,52.20
2018-01-26T14:49:24.030Z,52.20
2018-01-26T14:51:51.641Z,52.60
2018-01-26T14:54:19.974Z,54.30
2018-01-26T14:56:47.542Z,54.30
2018-01-26T14:59:15.076Z,54.20
2018-01-26T15:01:42.626Z,53.80
2018-01-26T15:04:10.162Z,54.20
2018-01-26T15:06:38.685Z,55.00
2018-01-26T15:09:06.239Z,54.90
2018-01-26T15:11:33.792Z,55.20
2018-01-26T15:14:03.288Z,55.20
2018-01-26T15:16:30.820Z,55.80
2018-01-26T15:18:59.119Z,56.90
2018-01-26T15:21:26.711Z,56.90
2018-01-26T15:23:54.252Z,57.00
2018-01-26T15:26:21.865Z,57.30
2018-01-26T15:28:50.311Z,57.80
2018-01-26T15:31:18.089Z,57.80
2018-01-26T15:33:45.651Z,58.70
2018-01-26T15:36:13.987Z,58.70
2018-01-26T15:38:41.540Z,58.70
2018-01-26T15:41:09.134Z,59.10
2018-01-26T15:43:36.667Z,58.90
2018-01-26T15:46:04.227Z,58.90
2018-01-26T15:48:31.995Z,59.10
2018-01-26T15:50:59.551Z,59.20
2018-01-26T15:53:27.073Z,59.00
2018-01-26T15:55:54.677Z,59.10
2018-01-26T15:58:22.322Z,59.40
2018-01-26T16:00:50.979Z,59.30
2018-01-26T16:03:18.986Z,59.30
2018-01-26T16:05:47.488Z,59.30
2018-01-26T16:08:15.980Z,59.60
2018-01-26T16:10:43.845Z,59.60
2018-01-26T16:13:12.193Z,59.90
2018-01-26T16:15:41.396Z,59.90
2018-01-26T16:18:09.186Z,60.20
2018-01-26T16:20:36.814Z,60.40
2018-01-26T16:23:04.391Z,60.70
2018-01-26T16:25:31.983Z,61.10
2018-01-26T16:27:59.499Z,60.90
2018-01-26T16:30:27.020Z,61.10
2018-01-26T16:32:54.698Z,61.10
2018-01-26T16:35:22.278Z,61.30
2018-01-26T16:37:49.912Z,61.30
2018-01-26T16:40:17.693Z,61.70
2018-01-26T16:42:45.272Z,62.40
2018-01-26T16:45:13.570Z,62.40
2018-01-26T16:47:41.232Z,62.40
2018-01-26T16:50:08.783Z,62.80
2018-01-26T16:52:36.322Z,63.50
2018-01-26T16:55:03.889Z,63.80
2018-01-26T16:57:32.184Z,64.30
2018-01-26T16:59:59.812Z,64.20
2018-01-26T17:02:27.362Z,64.40
2018-01-26T17:04:54.972Z,65.80
2018-01-26T17:07:48.984Z,65.60
2018-01-26T17:10:16.547Z,65.80
2018-01-26T17:12:44.114Z,66.10
2018-01-26T17:15:11.640Z,66.30
2018-01-26T17:17:39.153Z,66.70
2018-01-26T17:20:07.488Z,67.70
2018-01-26T17:22:35.005Z,67.00
2018-01-26T17:25:02.582Z,67.20
2018-01-26T17:27:30.390Z,67.20
2018-01-26T17:29:57.954Z,67.20
2018-01-26T17:32:25.543Z,67.40
2018-01-26T17:34:53.092Z,67.40
2018-01-26T17:37:21.389Z,67.80
2018-01-26T17:39:48.967Z,67.80
2018-01-26T17:42:16.597Z,68.00
2018-01-26T17:44:44.427Z,68.20
2018-01-26T17:47:11.976Z,68.30
2018-01-26T17:49:39.664Z,68.20
2018-01-26T17:52:07.179Z,68.70
2018-01-26T17:54:34.729Z,68.50
2018-01-26T17:57:02.334Z,68.60
2018-01-26T17:59:30.724Z,69.20
2018-01-26T18:01:59.230Z,68.90
2018-01-26T18:04:27.575Z,68.90
2018-01-26T18:06:55.906Z,69.20
2018-01-26T18:09:23.443Z,69.20
2018-01-26T18:11:50.986Z,69.30
2018-01-26T18:14:19.446Z,69.60
2018-01-26T18:16:47.838Z,70.20
2018-01-26T18:19:15.470Z,69.60
2018-01-26T18:21:43.873Z,69.90
2018-01-26T18:24:11.416Z,69.90
2018-01-26T18:26:39.755Z,69.90
2018-01-26T18:29:07.342Z,69.90
2018-01-26T18:31:34.893Z,70.10
2018-01-26T18:34:02.440Z,70.10
2018-01-26T18:36:29.991Z,70.20
2018-01-26T18:39:02.685Z,70.30
2018-01-26T18:41:31.058Z,70.30
2018-01-26T18:43:58.602Z,70.30
2018-01-26T18:46:26.143Z,70.10
2018-01-26T18:48:53.781Z,69.90
2018-01-26T18:51:21.422Z,70.00
2018-01-26T18:53:49.716Z,70.10
2018-01-26T18:56:17.447Z,70.10
2018-01-26T18:58:45.013Z,70.40
2018-01-26T19:01:13.332Z,70.30
2018-01-26T19:03:40.883Z,70.20
2018-01-26T19:06:08.455Z,70.30
2018-01-26T19:08:36.164Z,70.30
2018-01-26T19:11:04.477Z,70.50
2018-01-26T19:13:32.044Z,70.40
2018-01-26T19:15:59.622Z,70.50
2018-01-26T19:18:27.218Z,70.40
2018-01-26T19:20:55.547Z,70.30
2018-01-26T19:23:23.112Z,70.30
2018-01-26T19:25:50.697Z,70.30
2018-01-26T19:28:18.420Z,70.30
2018-01-26T19:30:45.979Z,70.40
2018-01-26T19:33:13.509Z,70.50
2018-01-26T19:35:41.069Z,70.50
2018-01-26T19:38:08.714Z,70.50
2018-01-26T19:40:37.030Z,71.00
2018-01-26T19:43:04.579Z,71.00
2018-01-26T19:45:32.200Z,71.20
2018-01-26T19:48:00.534Z,71.20
2018-01-26T19:50:28.079Z,71.20
2018-01-26T19:52:55.663Z,71.10
2018-01-26T19:55:23.198Z,71.20
2018-01-26T19:57:50.722Z,71.20
2018-01-26T20:00:19.099Z,71.70
2018-01-26T20:02:47.409Z,71.60
2018-01-26T20:05:32.632Z,71.60
2018-01-26T20:08:00.939Z,71.40
2018-01-26T20:10:29.504Z,71.40
2018-01-26T20:13:02.754Z,71.40
2018-01-26T20:15:30.360Z,71.10
2018-01-26T20:17:57.879Z,71.10
2018-01-26T20:20:25.469Z,71.00
2018-01-26T20:25:18.343Z,70.80
2018-01-26T20:27:45.954Z,70.90
2018-01-26T20:30:13.620Z,70.70
2018-01-26T20:32:41.130Z,71.00
2018-01-26T20:35:08.721Z,71.40
2018-01-26T20:37:36.362Z,71.50
2018-01-26T20:40:03.910Z,71.60
2018-01-26T20:42:31.516Z,71.90
2018-01-26T20:44:59.256Z,71.30
2018-01-26T20:47:26.804Z,71.30
2018-01-26T20:49:54.362Z,71.30
2018-01-26T20:52:22.695Z,71.10
2018-01-26T20:54:50.251Z,71.20
2018-01-26T20:57:18.051Z,71.20
2018-01-26T20:59:45.752Z,71.20
2018-01-26T21:02:13.301Z,71.10
2018-01-26T21:04:41.649Z,71.00
2018-01-26T21:07:09.205Z,71.00
2018-01-26T21:09:36.737Z,70.80
2018-01-26T21:12:04.311Z,70.90
2018-01-26T21:14:31.858Z,70.80
2018-01-26T21:16:59.398Z,70.80
2018-01-26T21:19:27.023Z,70.80
2018-01-26T21:21:55.346Z,70.80
2018-01-26T21:24:22.866Z,71.00
2018-01-26T21:26:50.468Z,70.60
2018-01-26T21:29:18.798Z,70.60
2018-01-26T21:31:46.362Z,70.50
2018-01-26T21:34:14.726Z,70.70
2018-01-26T21:36:42.264Z,70.70
2018-01-26T21:39:09.806Z,70.60
2018-01-26T21:41:37.388Z,70.50
2018-01-26T21:44:04.941Z,70.40
2018-01-26T21:46:32.533Z,70.70
2018-01-26T21:49:00.119Z,70.40
2018-01-26T21:51:27.671Z,70.30
2018-01-26T21:53:55.254Z,70.10
2018-01-26T21:56:22.836Z,69.80
2018-01-26T21:58:51.146Z,69.60
2018-01-26T22:01:18.767Z,69.60
2018-01-26T22:03:46.364Z,69.50
2018-01-26T22:09:18.604Z,69.50
2018-01-26T22:11:46.134Z,69.50
2018-01-26T22:14:14.571Z,68.90
2018-01-26T22:16:42.157Z,69.00
2018-01-26T22:19:09.701Z,69.00
2018-01-26T22:21:37.990Z,68.70
2018-01-26T22:24:05.559Z,68.70
2018-01-26T22:26:33.169Z,68.70
2018-01-26T22:29:01.466Z,68.10
2018-01-26T22:31:29.002Z,68.10
2018-01-26T22:33:56.548Z,68.00
2018-01-26T22:36:24.349Z,67.80
2018-01-26T22:38:51.928Z,67.50
2018-01-26T22:41:19.466Z,67.30
2018-01-26T22:43:47.036Z,67.30
2018-01-26T22:46:14.692Z,66.90
2018-01-26T22:48:42.205Z,67.00
2018-01-26T22:51:09.710Z,66.90
2018-01-26T22:53:37.281Z,67.00
2018-01-26T22:56:04.807Z,67.00
2018-01-26T22:58:32.389Z,66.80
2018-01-26T23:01:00.720Z,66.70
2018-01-26T23:03:28.276Z,66.80
2018-01-26T23:05:55.817Z,66.70
2018-01-26T23:08:23.389Z,66.70
2018-01-26T23:10:51.668Z,66.70
2018-01-26T23:13:19.433Z,66.50
2018-01-26T23:15:47.145Z,66.60
2018-01-26T23:18:14.762Z,66.40
2018-01-26T23:20:43.070Z,66.40
2018-01-26T23:23:11.385Z,66.30
2018-01-26T23:25:39.689Z,66.20
2018-01-26T23:28:07.209Z,66.30
2018-01-26T23:30:34.770Z,66.20
2018-01-26T23:33:02.301Z,66.20
2018-01-26T23:35:30.595Z,66.30
2018-01-26T23:37:58.993Z,66.20
2018-01-26T23:40:27.287Z,66.30
2018-01-26T23:42:54.842Z,66.30
2018-01-26T23:45:22.404Z,66.20
2018-01-26T23:47:49.941Z,66.20
2018-01-26T23:50:17.610Z,66.50
2018-01-26T23:52:45.168Z,66.50
2018-01-26T23:55:12.703Z,66.50
2018-01-26T23:57:41.004Z,67.00
